Time;durP1;ratioP1;P1;durP2;ratioP2;P2;SDS_P1;SDS_P2;PMS_P1;PMS_P2;Temp;Humidity;BMP_temperature;BMP_pressure;BME280_temperature;BME280_humidity;BME280_pressure;Samples;Min_cycle;Max_cycle;Signal;HPM_P1;HPM_P2
2021/07/01 00:00:05;;;;;;;0.47;0.20;;;;;;;20.85;56.25;101528.53;5014111;28;20044;-60
2021/07/01 00:02:30;;;;;;;0.82;0.30;;;;;;;20.81;57.75;101524.44;5013946;28;20021;-59
2021/07/01 00:04:56;;;;;;;0.80;0.30;;;;;;;20.82;56.61;101536.22;5014086;28;20095;-59
2021/07/01 00:07:21;;;;;;;1.70;0.30;;;;;;;20.82;57.13;101536.22;5014276;28;20026;-59
2021/07/01 00:09:47;;;;;;;0.55;0.20;;;;;;;20.81;57.16;101539.97;5013958;28;20018;-59
2021/07/01 00:12:12;;;;;;;0.55;0.30;;;;;;;20.87;56.01;101533.84;5013799;28;20084;-60
2021/07/01 00:14:37;;;;;;;1.08;0.22;;;;;;;20.93;57.19;101534.00;5014318;28;20029;-60
2021/07/01 00:17:03;;;;;;;0.93;0.20;;;;;;;20.94;55.76;101534.84;5013907;28;20037;-60
2021/07/01 00:19:28;;;;;;;0.95;0.40;;;;;;;20.88;56.17;101530.94;5012525;28;20024;-59
2021/07/01 00:21:53;;;;;;;4.13;0.50;;;;;;;20.83;58.12;101532.47;5013681;28;20032;-59
2021/07/01 00:24:19;;;;;;;1.85;0.50;;;;;;;20.81;56.06;101527.16;5013644;28;20033;-59
2021/07/01 00:26:44;;;;;;;1.20;0.43;;;;;;;20.85;56.28;101530.44;5013748;28;20072;-59
2021/07/01 00:29:10;;;;;;;0.43;0.28;;;;;;;20.86;56.97;101532.13;5012882;28;20030;-60
2021/07/01 00:31:35;;;;;;;1.35;0.40;;;;;;;20.81;55.75;101531.78;5013310;28;20018;-59
2021/07/01 00:34:01;;;;;;;1.05;0.57;;;;;;;20.84;55.61;101528.72;5013417;28;20477;-60
2021/07/01 00:36:26;;;;;;;1.23;0.32;;;;;;;20.89;57.41;101523.59;5013672;28;20040;-60
2021/07/01 00:38:52;;;;;;;2.30;0.40;;;;;;;20.79;56.32;101520.16;5012332;28;20045;-60
2021/07/01 00:41:17;;;;;;;3.05;0.50;;;;;;;20.77;56.24;101520.34;5013743;28;20029;-60
2021/07/01 00:43:43;;;;;;;0.70;0.32;;;;;;;20.79;55.45;101520.16;5013323;28;20029;-60
2021/07/01 00:46:12;;;;;;;0.50;0.20;;;;;;;20.76;57.71;101528.72;5013270;28;20025;-59
2021/07/01 00:48:38;;;;;;;3.40;0.60;;;;;;;20.75;57.31;101518.81;5013575;28;20025;-59
2021/07/01 00:51:04;;;;;;;1.50;0.30;;;;;;;20.71;57.23;101501.91;5013640;28;20034;-59
2021/07/01 00:53:29;;;;;;;0.45;0.30;;;;;;;20.77;59.12;101506.66;5013225;28;20037;-60
2021/07/01 00:55:55;;;;;;;0.50;0.20;;;;;;;20.81;57.98;101498.97;5013122;28;20041;-60
2021/07/01 00:58:20;;;;;;;0.90;0.32;;;;;;;20.86;58.09;101493.88;5013096;28;20038;-59
2021/07/01 01:03:39;;;;;;;1.90;0.50;;;;;;;20.83;55.62;101505.16;5013143;28;20049;-60
2021/07/01 01:06:06;;;;;;;0.85;0.30;;;;;;;20.73;56.36;101499.84;5013323;28;20053;-60
2021/07/01 01:08:32;;;;;;;0.75;0.20;;;;;;;20.71;54.14;101497.28;5013379;28;20018;-59
2021/07/01 01:10:57;;;;;;;1.20;0.22;;;;;;;20.66;56.21;101496.97;5013227;28;20485;-59
2021/07/01 01:13:26;;;;;;;1.00;0.30;;;;;;;20.63;56.58;101494.53;5013208;28;20033;-59
2021/07/01 01:15:58;;;;;;;2.63;0.50;;;;;;;20.60;55.66;101499.50;5013100;28;20108;-59
2021/07/01 01:18:25;;;;;;;0.73;0.30;;;;;;;20.56;56.03;101493.53;5013060;28;20026;-60
2021/07/01 01:20:52;;;;;;;0.20;0.20;;;;;;;20.50;55.91;101488.75;5012985;28;20156;-59
2021/07/01 01:23:17;;;;;;;1.80;0.25;;;;;;;20.49;53.94;101487.06;5013133;28;20511;-60
2021/07/01 01:25:46;;;;;;;1.35;0.38;;;;;;;20.51;54.82;101485.00;5013153;28;20112;-60
2021/07/01 01:28:11;;;;;;;2.88;0.40;;;;;;;20.45;57.13;101480.19;5013013;28;20022;-59
2021/07/01 01:30:38;;;;;;;1.55;0.20;;;;;;;20.47;54.71;101483.59;5013184;28;20025;-59
2021/07/01 01:33:07;;;;;;;1.52;0.40;;;;;;;20.51;54.71;101490.47;5012968;28;20044;-59
2021/07/01 01:35:34;;;;;;;1.35;0.50;;;;;;;20.48;55.91;101479.84;5013114;28;20116;-59
2021/07/01 01:37:59;;;;;;;1.85;0.30;;;;;;;20.49;53.80;101481.59;5012896;28;20033;-60
2021/07/01 01:40:25;;;;;;;1.23;0.22;;;;;;;20.51;57.03;101479.53;5014147;28;20050;-60
2021/07/01 01:42:50;;;;;;;0.40;0.20;;;;;;;20.56;57.18;101477.13;5016059;28;20089;-59
2021/07/01 01:45:15;;;;;;;0.95;0.50;;;;;;;20.58;57.38;101464.16;5016695;28;20030;-60
2021/07/01 01:47:49;;;;;;;0.75;0.32;;;;;;;20.57;56.21;101473.38;5016705;28;20025;-60
2021/07/01 01:50:21;;;;;;;1.65;0.30;;;;;;;20.52;56.22;101464.00;5016613;28;20026;-60
2021/07/01 01:52:48;;;;;;;1.15;0.20;;;;;;;20.51;56.74;101460.41;5016615;28;20029;-60
2021/07/01 01:55:14;;;;;;;2.50;0.60;;;;;;;20.58;54.96;101453.22;5016525;28;20025;-59
2021/07/01 01:57:44;;;;;;;0.63;0.32;;;;;;;20.60;57.67;101448.44;5016252;28;20121;-59
2021/07/01 02:00:15;;;;;;;1.25;0.20;;;;;;;20.59;57.23;101449.47;5016344;28;20030;-59
2021/07/01 02:02:40;;;;;;;1.40;0.40;;;;;;;20.62;56.32;101470.13;5015490;28;20365;-59
2021/07/01 02:05:07;;;;;;;0.98;0.40;;;;;;;20.54;56.43;101473.72;5016331;28;20030;-59
2021/07/01 02:07:33;;;;;;;1.15;0.30;;;;;;;20.50;54.81;101477.84;5016351;28;20519;-60
2021/07/01 02:09:59;;;;;;;1.42;0.40;;;;;;;20.57;57.01;101473.38;5016195;28;20030;-60
2021/07/01 02:12:25;;;;;;;0.60;0.30;;;;;;;20.59;55.61;101475.94;5016263;28;20371;-59
2021/07/01 02:14:50;;;;;;;3.65;0.40;;;;;;;20.59;57.17;101475.94;5014769;28;20413;-59
2021/07/01 02:17:16;;;;;;;1.05;0.50;;;;;;;20.56;56.15;101470.81;5016240;28;20026;-59
2021/07/01 02:19:41;;;;;;;1.77;0.77;;;;;;;20.52;58.39;101469.47;5016081;28;20512;-59
2021/07/01 02:22:07;;;;;;;0.85;0.52;;;;;;;20.49;56.25;101470.66;5016043;28;20029;-59
2021/07/01 02:24:32;;;;;;;1.73;0.30;;;;;;;20.55;58.37;101474.59;5016041;28;20465;-59
2021/07/01 02:26:58;;;;;;;0.50;0.28;;;;;;;20.50;57.20;101472.38;5015859;28;20026;-59
2021/07/01 02:29:23;;;;;;;1.08;0.20;;;;;;;20.53;57.67;101480.22;5015816;28;20153;-59
2021/07/01 02:31:48;;;;;;;1.25;0.30;;;;;;;20.49;58.68;101481.59;5015586;28;20492;-60
2021/07/01 02:34:15;;;;;;;0.60;0.10;;;;;;;20.50;58.75;101483.28;5015783;28;20026;-60
2021/07/01 02:36:41;;;;;;;0.57;0.28;;;;;;;20.45;57.53;101472.00;5015944;28;20042;-60
2021/07/01 02:39:07;;;;;;;0.45;0.20;;;;;;;20.47;57.75;101483.59;5015604;28;20026;-59
2021/07/01 02:41:36;;;;;;;0.32;0.10;;;;;;;20.52;55.45;101474.94;5014492;28;20033;-59
2021/07/01 02:44:02;;;;;;;1.70;0.30;;;;;;;20.54;57.85;101467.41;5015650;28;20522;-59
2021/07/01 02:46:28;;;;;;;1.15;0.40;;;;;;;20.50;57.76;101472.38;5015674;28;20105;-59
2021/07/01 02:48:53;;;;;;;0.30;0.20;;;;;;;20.57;57.46;101469.78;5015507;28;20461;-59
2021/07/01 02:51:18;;;;;;;1.60;0.30;;;;;;;20.51;57.72;101463.16;5015146;28;20489;-59
2021/07/01 02:53:44;;;;;;;1.20;0.30;;;;;;;20.52;58.40;101470.31;5015576;28;20022;-60
2021/07/01 02:56:09;;;;;;;1.38;0.20;;;;;;;20.55;57.71;101475.44;5015373;28;20048;-60
2021/07/01 02:58:34;;;;;;;1.20;0.20;;;;;;;20.52;58.75;101466.72;5015286;28;20038;-60
2021/07/01 03:01:00;;;;;;;2.80;0.38;;;;;;;20.51;59.09;101468.63;5015086;28;20053;-59
2021/07/01 03:03:26;;;;;;;1.42;0.20;;;;;;;20.53;56.76;101477.50;5015488;28;20025;-60
2021/07/01 03:05:51;;;;;;;0.75;0.22;;;;;;;20.50;55.13;101483.28;5015230;28;20080;-59
2021/07/01 03:08:16;;;;;;;0.20;0.20;;;;;;;20.50;57.51;101482.44;5015177;28;20512;-59
2021/07/01 03:10:42;;;;;;;1.23;0.40;;;;;;;20.46;57.82;101481.91;5015207;28;20585;-59
2021/07/01 03:13:07;;;;;;;1.80;0.20;;;;;;;20.53;59.10;101461.09;5014929;28;20037;-60
2021/07/01 03:15:32;;;;;;;1.10;0.15;;;;;;;20.56;57.86;101449.81;5015114;28;20034;-60
2021/07/01 03:17:58;;;;;;;0.30;0.10;;;;;;;20.56;57.11;101455.28;5014384;28;20022;-60
2021/07/01 03:20:23;;;;;;;1.77;0.40;;;;;;;20.56;57.56;101452.56;5015125;28;20026;-59
2021/07/01 03:22:49;;;;;;;1.08;0.30;;;;;;;20.60;56.96;101455.78;5014940;28;20026;-60
2021/07/01 03:25:14;;;;;;;0.30;0.20;;;;;;;20.62;57.43;101451.84;5014839;28;20030;-60
2021/07/01 03:27:39;;;;;;;0.98;0.10;;;;;;;20.59;58.59;101460.41;5014986;28;20036;-59
2021/07/01 03:30:06;;;;;;;0.85;0.20;;;;;;;20.60;57.96;101456.66;5014627;28;20044;-59
2021/07/01 03:32:31;;;;;;;0.20;0.10;;;;;;;20.59;57.73;101454.09;5014744;28;20488;-59
2021/07/01 03:34:56;;;;;;;2.25;0.35;;;;;;;20.58;56.94;101455.13;5014610;28;20033;-59
2021/07/01 03:37:22;;;;;;;0.90;0.20;;;;;;;20.62;57.14;101454.59;5014720;28;20026;-60
2021/07/01 03:39:48;;;;;;;0.50;0.20;;;;;;;20.59;56.97;101454.94;5014556;28;20030;-60
2021/07/01 03:42:13;;;;;;;0.77;0.20;;;;;;;20.58;58.27;101455.97;5014606;28;20468;-60
2021/07/01 03:44:38;;;;;;;1.27;0.17;;;;;;;20.60;56.68;101451.19;5014668;28;20021;-59
2021/07/01 03:47:06;;;;;;;0.70;0.30;;;;;;;20.61;58.02;101444.69;5014388;28;20021;-60
2021/07/01 03:49:32;;;;;;;1.58;0.30;;;;;;;20.63;57.99;101442.63;5014512;28;20030;-59
2021/07/01 03:51:57;;;;;;;0.77;0.20;;;;;;;20.67;57.20;101443.16;5014287;28;20100;-59
2021/07/01 03:54:23;;;;;;;0.05;0.05;;;;;;;20.66;57.59;101441.47;5014363;28;20477;-60
2021/07/01 03:56:48;;;;;;;1.60;0.30;;;;;;;20.67;57.31;101435.81;5014324;28;20024;-59
2021/07/01 03:59:15;;;;;;;1.05;0.20;;;;;;;20.66;59.06;101439.59;5013846;28;20408;-59
2021/07/01 04:01:41;;;;;;;1.00;0.30;;;;;;;20.69;59.12;101433.78;5014166;28;20041;-59
2021/07/01 04:04:07;;;;;;;1.27;0.25;;;;;;;20.97;58.87;101436.09;5013097;28;20068;-60
2021/07/01 04:06:33;;;;;;;0.80;0.28;;;;;;;21.21;58.12;101432.47;5014175;28;20030;-60
2021/07/01 04:09:00;;;;;;;0.95;0.32;;;;;;;21.30;57.17;101420.47;5014008;28;20022;-59
2021/07/01 04:11:26;;;;;;;0.93;0.20;;;;;;;21.34;57.21;101429.19;5012770;28;20022;-59
2021/07/01 04:13:51;;;;;;;0.80;0.20;;;;;;;21.40;56.57;101425.75;5014045;28;20033;-59
2021/07/01 04:16:17;;;;;;;1.98;0.25;;;;;;;21.44;56.35;101427.09;5013763;28;20034;-59
2021/07/01 04:18:42;;;;;;;0.28;0.10;;;;;;;21.50;57.07;101427.25;5013955;28;20103;-59
2021/07/01 04:21:07;;;;;;;1.80;0.50;;;;;;;21.53;56.71;101421.41;5013685;28;20025;-59
2021/07/01 04:23:33;;;;;;;1.45;0.75;;;;;;;21.55;55.93;101426.72;5013972;28;20469;-59
2021/07/01 04:25:58;;;;;;;1.08;0.20;;;;;;;21.58;56.54;101431.81;5013783;28;20056;-60
2021/07/01 04:28:24;;;;;;;1.20;0.25;;;;;;;21.58;57.29;101437.28;5013880;28;20069;-60
2021/07/01 04:30:49;;;;;;;1.27;0.20;;;;;;;21.51;57.02;101428.09;5013746;28;20022;-60
2021/07/01 04:33:15;;;;;;;0.50;0.20;;;;;;;21.54;56.94;101425.00;5013685;28;20041;-60
2021/07/01 04:35:47;;;;;;;0.60;0.20;;;;;;;21.58;56.89;101429.09;5013812;28;20068;-59
2021/07/01 04:38:12;;;;;;;1.10;0.15;;;;;;;21.62;57.48;101430.41;5013522;28;20060;-59
2021/07/01 04:40:38;;;;;;;0.88;0.17;;;;;;;21.67;56.85;101443.56;5013742;28;20101;-59
2021/07/01 04:43:03;;;;;;;0.50;0.10;;;;;;;21.71;55.97;101459.47;5012262;28;20036;-59
2021/07/01 04:45:28;;;;;;;1.67;0.30;;;;;;;21.70;55.79;101452.28;5011924;28;20022;-60
2021/07/01 04:47:54;;;;;;;0.50;0.10;;;;;;;21.76;57.05;101462.50;5012065;28;20022;-59
2021/07/01 04:50:19;;;;;;;1.02;0.43;;;;;;;21.76;57.28;101459.78;5013645;28;20465;-60
2021/07/01 04:52:44;;;;;;;1.08;0.20;;;;;;;21.78;57.55;101456.84;5013408;28;20049;-60
2021/07/01 04:55:10;;;;;;;0.55;0.20;;;;;;;21.78;57.47;101460.44;5013405;28;20064;-60
2021/07/01 04:57:35;;;;;;;0.28;0.10;;;;;;;21.82;57.17;101453.56;5013409;28;20041;-60
2021/07/01 05:00:00;;;;;;;0.32;0.20;;;;;;;21.81;57.15;101454.59;5013109;28;20468;-59
2021/07/01 05:02:25;;;;;;;0.82;0.45;;;;;;;21.75;57.24;101447.13;5013254;28;20029;-59
2021/07/01 05:04:51;;;;;;;1.00;0.30;;;;;;;21.76;57.90;101453.44;5013386;28;20021;-59
2021/07/01 05:07:16;;;;;;;1.70;0.22;;;;;;;21.75;59.29;101436.16;5013287;28;20422;-60
2021/07/01 05:09:41;;;;;;;1.00;0.20;;;;;;;21.78;58.27;101438.53;5011047;28;20033;-60
2021/07/01 05:12:07;;;;;;;0.10;0.05;;;;;;;21.85;57.57;101425.84;5012217;28;20076;-60
2021/07/01 05:14:32;;;;;;;1.98;0.38;;;;;;;21.90;57.57;101434.38;5014480;28;20026;-59
2021/07/01 05:16:57;;;;;;;1.15;0.40;;;;;;;21.91;56.80;101448.91;5017302;28;20445;-60
2021/07/01 05:19:23;;;;;;;0.68;0.40;;;;;;;21.92;58.97;101446.00;5016102;28;20481;-60
2021/07/01 05:21:48;;;;;;;0.47;0.17;;;;;;;21.92;59.00;101450.63;5017242;28;20453;-59
2021/07/01 05:24:13;;;;;;;0.10;0.10;;;;;;;21.91;58.76;101452.50;5017253;28;20022;-59
2021/07/01 05:26:39;;;;;;;0.43;0.20;;;;;;;21.96;58.73;101442.88;5017283;28;20040;-59
2021/07/01 05:29:04;;;;;;;0.52;0.10;;;;;;;21.96;59.02;101443.75;5016897;28;20505;-60
2021/07/01 05:31:30;;;;;;;0.73;0.20;;;;;;;21.97;59.35;101434.50;5016957;28;20065;-59
2021/07/01 05:33:57;;;;;;;1.27;0.20;;;;;;;21.95;58.97;101424.75;5016832;28;20033;-60
2021/07/01 05:36:22;;;;;;;0.90;0.30;;;;;;;21.90;59.50;101434.38;5017051;28;20025;-60
2021/07/01 05:38:48;;;;;;;0.28;0.20;;;;;;;21.93;59.11;101434.00;5016682;28;20065;-60
2021/07/01 05:41:13;;;;;;;0.17;0.10;;;;;;;21.95;59.15;101432.97;5016663;28;20460;-60
2021/07/01 05:43:38;;;;;;;0.82;0.17;;;;;;;21.98;59.73;101438.06;5016855;28;20033;-59
2021/07/01 05:46:04;;;;;;;0.85;0.10;;;;;;;21.98;59.32;101429.88;5016609;28;20024;-59
2021/07/01 05:48:29;;;;;;;0.70;0.15;;;;;;;22.01;58.21;101424.06;5016831;28;20018;-59
2021/07/01 05:51:01;;;;;;;1.20;0.30;;;;;;;21.92;59.18;101426.81;5016050;28;20022;-59
2021/07/01 05:53:49;;;;;;;0.82;0.35;;;;;;;21.92;59.03;101421.34;5015744;28;20104;-61
2021/07/01 05:56:14;;;;;;;0.60;0.30;;;;;;;21.90;59.01;101423.44;5015997;28;20358;-60
2021/07/01 05:58:39;;;;;;;0.20;0.13;;;;;;;21.87;58.84;101421.06;5016378;28;20036;-60
2021/07/01 06:01:05;;;;;;;1.63;0.20;;;;;;;21.86;57.64;101416.63;5016381;28;20409;-60
2021/07/01 06:03:32;;;;;;;0.38;0.10;;;;;;;21.82;58.96;101417.97;5016520;28;20109;-60
2021/07/01 06:06:02;;;;;;;1.00;0.38;;;;;;;21.88;57.03;101420.03;5016278;28;20033;-60
2021/07/01 06:08:29;;;;;;;0.28;0.10;;;;;;;21.83;59.63;101429.78;5015821;28;20033;-59
2021/07/01 06:11:01;;;;;;;0.68;0.30;;;;;;;21.87;57.54;101442.94;5015832;28;20014;-59
2021/07/01 06:13:29;;;;;;;0.40;0.17;;;;;;;21.86;57.86;101438.50;5016268;28;20022;-59
2021/07/01 06:15:55;;;;;;;0.77;0.10;;;;;;;21.87;58.75;101440.22;5015955;28;20022;-59
2021/07/01 06:18:22;;;;;;;0.60;0.25;;;;;;;21.86;57.40;101433.03;5016177;28;20029;-60
2021/07/01 06:20:48;;;;;;;0.38;0.10;;;;;;;21.84;57.56;101428.78;5016042;28;20359;-60
2021/07/01 06:23:15;;;;;;;1.05;0.20;;;;;;;21.89;57.56;101429.94;5014149;28;20033;-60
2021/07/01 06:25:40;;;;;;;0.13;0.13;;;;;;;21.87;57.02;101445.69;5008393;28;20034;-59
2021/07/01 06:28:06;;;;;;;0.68;0.20;;;;;;;21.79;59.16;101448.47;5008649;28;20032;-59
2021/07/01 06:30:35;;;;;;;0.40;0.20;;;;;;;21.61;57.89;101450.59;5018366;28;20029;-60
2021/07/01 06:33:01;;;;;;;1.90;0.22;;;;;;;21.52;59.61;101451.69;5015873;28;20026;-59
2021/07/01 06:35:26;;;;;;;0.30;0.20;;;;;;;21.38;57.80;101455.16;5017519;28;20504;-59
2021/07/01 06:38:01;;;;;;;0.90;0.20;;;;;;;21.30;59.07;101453.28;4998646;28;20038;-60
2021/07/01 06:40:31;;;;;;;1.02;0.20;;;;;;;21.27;58.29;101453.66;4996139;28;20593;-59
2021/07/01 06:42:58;;;;;;;1.13;0.30;;;;;;;21.29;59.07;101457.06;4997084;28;20488;-60
2021/07/01 06:45:25;;;;;;;0.47;0.10;;;;;;;21.18;59.41;101466.47;5006143;28;20037;-61
2021/07/01 06:47:53;;;;;;;0.98;0.13;;;;;;;21.13;57.96;101457.94;4997737;28;20033;-61
2021/07/01 06:50:24;;;;;;;0.70;0.20;;;;;;;21.19;59.34;101461.84;4995993;28;20116;-60
2021/07/01 06:52:51;;;;;;;1.00;0.10;;;;;;;21.12;58.63;101464.41;5002196;28;20421;-61
2021/07/01 06:55:17;;;;;;;0.50;0.17;;;;;;;21.10;58.58;101466.47;5014341;28;20041;-60
2021/07/01 06:57:43;;;;;;;0.65;0.10;;;;;;;21.13;57.71;101465.28;5015249;28;20046;-60
2021/07/01 07:00:11;;;;;;;0.13;0.05;;;;;;;21.14;58.26;101459.63;4999123;28;20423;-60
2021/07/01 07:02:37;;;;;;;1.52;0.20;;;;;;;21.13;57.55;101468.84;5002298;28;20380;-60
2021/07/01 07:05:07;;;;;;;0.57;0.28;;;;;;;21.10;58.61;101471.09;5029335;28;20039;-61
2021/07/01 07:07:33;;;;;;;0.75;0.43;;;;;;;21.07;58.93;101469.56;5029614;28;20029;-61
2021/07/01 07:10:03;;;;;;;0.45;0.20;;;;;;;21.05;58.95;101465.31;5034922;28;20022;-60
2021/07/01 07:12:29;;;;;;;1.67;0.30;;;;;;;21.05;58.49;101476.25;5035016;28;20144;-61
2021/07/01 07:14:55;;;;;;;0.40;0.20;;;;;;;21.00;59.21;101480.34;5034837;28;20033;-60
2021/07/01 07:17:27;;;;;;;1.23;0.28;;;;;;;21.07;59.37;101475.03;5034954;28;20065;-60
2021/07/01 07:19:55;;;;;;;1.00;0.35;;;;;;;21.07;58.19;101482.38;5022234;28;20027;-59
2021/07/01 07:22:21;;;;;;;1.27;0.20;;;;;;;21.05;59.19;101488.03;5034768;28;20056;-63
2021/07/01 07:24:53;;;;;;;1.33;0.30;;;;;;;21.02;59.02;101491.97;5034697;28;20025;-60
2021/07/01 07:27:26;;;;;;;0.82;0.30;;;;;;;21.03;59.27;101495.56;5034679;28;20447;-60
2021/07/01 07:29:51;;;;;;;0.35;0.13;;;;;;;21.17;59.24;101494.84;5034417;28;20106;-59
2021/07/01 07:32:20;;;;;;;2.05;0.65;;;;;;;21.24;58.91;101487.69;5007307;28;20108;-59
2021/07/01 07:34:47;;;;;;;1.25;0.47;;;;;;;21.19;60.02;101479.13;5014911;28;20026;-59
2021/07/01 07:37:14;;;;;;;2.78;0.60;;;;;;;21.15;59.19;101474.16;4997661;28;20034;-59
2021/07/01 07:39:40;;;;;;;0.95;0.20;;;;;;;21.14;61.00;101472.44;5001047;28;20064;-59
2021/07/01 07:42:06;;;;;;;0.30;0.22;;;;;;;21.15;59.87;101461.34;5014739;28;20357;-60
2021/07/01 07:44:35;;;;;;;1.02;0.20;;;;;;;21.14;59.97;101462.38;5014631;28;20108;-59
2021/07/01 07:47:00;;;;;;;0.82;0.43;;;;;;;21.13;59.68;101474.34;5009759;28;20026;-60
2021/07/01 07:49:26;;;;;;;0.77;0.30;;;;;;;21.08;59.13;101468.53;5000403;28;20354;-60
2021/07/01 07:51:51;;;;;;;0.32;0.10;;;;;;;21.01;59.26;101471.13;4996227;28;20109;-59
2021/07/01 07:54:23;;;;;;;1.63;0.32;;;;;;;21.03;59.28;101462.75;5023837;28;20037;-59
2021/07/01 07:56:50;;;;;;;1.60;0.40;;;;;;;21.00;59.27;101465.84;5021684;28;20137;-60
2021/07/01 07:59:20;;;;;;;1.10;0.50;;;;;;;21.05;56.02;101466.16;5022606;28;20045;-59
2021/07/01 08:01:48;;;;;;;1.10;0.20;;;;;;;21.13;58.98;101473.47;5018791;28;20029;-59
2021/07/01 08:04:17;;;;;;;1.80;0.20;;;;;;;21.05;58.13;101460.69;5014042;28;20109;-59
2021/07/01 08:06:44;;;;;;;0.98;0.30;;;;;;;21.02;58.29;101466.50;5014110;28;20022;-59
2021/07/01 08:09:12;;;;;;;1.58;0.20;;;;;;;21.02;56.73;101463.78;5014160;28;20025;-59
2021/07/01 08:11:41;;;;;;;0.57;0.20;;;;;;;21.00;58.21;101457.63;5009416;28;20386;-60
2021/07/01 08:14:06;;;;;;;0.20;0.10;;;;;;;21.05;56.96;101451.63;4997947;28;20049;-59
2021/07/01 08:16:32;;;;;;;0.60;0.10;;;;;;;21.00;57.54;101466.69;5002275;28;20503;-59
2021/07/01 08:18:59;;;;;;;0.90;0.30;;;;;;;21.01;57.18;101459.34;5008319;28;20025;-59
2021/07/01 08:21:25;;;;;;;0.35;0.22;;;;;;;21.02;57.05;101461.06;5012717;28;20026;-59
2021/07/01 08:23:50;;;;;;;0.77;0.60;;;;;;;21.03;55.42;101468.22;5013061;28;20033;-59
2021/07/01 08:26:17;;;;;;;0.30;0.05;;;;;;;21.09;55.80;101462.03;5013339;28;20430;-59
2021/07/01 08:28:43;;;;;;;0.20;0.10;;;;;;;21.09;56.92;101461.19;5013367;28;20105;-58
2021/07/01 08:31:11;;;;;;;0.38;0.13;;;;;;;21.04;56.55;101461.72;5013148;28;20028;-59
2021/07/01 08:33:40;;;;;;;1.73;0.30;;;;;;;21.13;58.52;101463.41;5013407;28;20017;-59
2021/07/01 08:36:09;;;;;;;0.30;0.13;;;;;;;21.32;56.88;101456.69;5013289;28;20028;-59
2021/07/01 08:38:39;;;;;;;1.55;0.17;;;;;;;21.35;58.08;101461.00;5013751;28;20080;-59
2021/07/01 08:41:22;;;;;;;0.20;0.20;;;;;;;21.41;57.30;101461.13;5013362;28;20026;-59
2021/07/01 08:43:59;;;;;;;1.75;0.20;;;;;;;21.46;57.67;101452.38;5013505;28;20034;-60
2021/07/01 08:46:48;;;;;;;0.65;0.10;;;;;;;21.45;58.16;101467.09;5010431;28;20395;-59
2021/07/01 08:49:24;;;;;;;0.00;0.00;;;;;;;21.49;58.16;101469.28;4995661;28;20030;-59
2021/07/01 08:51:49;;;;;;;0.20;0.10;;;;;;;21.53;57.61;101489.81;5002367;28;20065;-59
2021/07/01 08:54:25;;;;;;;1.13;0.25;;;;;;;21.43;58.53;101460.94;5005578;28;20049;-61
2021/07/01 08:56:53;;;;;;;0.43;0.10;;;;;;;21.37;59.37;101476.19;5012839;28;20437;-62
2021/07/01 08:59:21;;;;;;;0.88;0.25;;;;;;;-142.37;100.00;59669.53;5012476;28;20052;-64
2021/07/01 09:02:00;;;;;;;0.52;0.22;;;;;;;-142.37;100.00;59669.53;5002163;28;20048;-62
2021/07/01 09:04:33;;;;;;;0.90;0.10;;;;;;;-142.37;100.00;59669.53;5002430;28;20018;-62
2021/07/01 09:07:01;;;;;;;0.50;0.20;;;;;;;-142.37;100.00;59669.53;5021130;28;20041;-62
2021/07/01 09:09:33;;;;;;;1.30;0.20;;;;;;;-142.37;100.00;59669.53;5010592;28;20029;-61
2021/07/01 09:12:07;;;;;;;1.70;0.20;;;;;;;-142.37;100.00;59669.53;5015309;28;20415;-58
2021/07/01 09:14:36;;;;;;;0.47;0.20;;;;;;;-142.37;100.00;59669.53;5013094;28;20033;-61
2021/07/01 09:17:07;;;;;;;0.75;0.30;;;;;;;-142.37;100.00;59669.53;5017407;28;20022;-60
2021/07/01 09:19:32;;;;;;;1.50;0.30;;;;;;;-142.37;100.00;59669.53;5029395;28;20022;-59
2021/07/01 09:22:01;;;;;;;1.27;0.50;;;;;;;-142.37;100.00;59669.53;5009302;28;20437;-59
2021/07/01 09:24:35;;;;;;;1.13;0.17;;;;;;;-142.37;100.00;59669.53;5012685;28;20038;-65
2021/07/01 09:27:07;;;;;;;1.80;0.30;;;;;;;-142.37;100.00;59669.53;5027028;28;20056;-61
2021/07/01 09:29:33;;;;;;;1.38;0.30;;;;;;;-142.37;100.00;59669.53;5021839;28;20022;-64
2021/07/01 09:32:00;;;;;;;0.70;0.30;;;;;;;-142.37;100.00;59669.53;5013153;28;20122;-61
2021/07/01 09:34:25;;;;;;;1.98;0.70;;;;;;;-142.37;100.00;59669.53;5017699;28;20453;-64
2021/07/01 09:36:51;;;;;;;1.45;0.20;;;;;;;-142.37;100.00;59669.53;5019759;28;20057;-66
2021/07/01 09:39:21;;;;;;;1.73;0.43;;;;;;;-142.37;100.00;59669.53;5019573;28;20088;-65
2021/07/01 09:41:47;;;;;;;1.30;0.40;;;;;;;-142.37;100.00;59669.53;5014990;28;20600;-63
2021/07/01 09:44:16;;;;;;;1.88;0.50;;;;;;;-142.37;100.00;59669.53;5012753;28;20022;-63
2021/07/01 09:46:47;;;;;;;1.45;0.45;;;;;;;-142.37;100.00;59669.53;5012946;28;20036;-62
2021/07/01 09:49:18;;;;;;;1.20;0.47;;;;;;;-142.37;100.00;59669.53;5011771;28;20356;-60
2021/07/01 09:51:49;;;;;;;3.55;0.47;;;;;;;-142.37;100.00;59669.53;5011128;28;20372;-59
2021/07/01 09:54:17;;;;;;;2.63;0.43;;;;;;;-142.37;100.00;59669.53;4999741;28;20425;-60
2021/07/01 09:56:50;;;;;;;0.82;0.30;;;;;;;-142.37;100.00;59669.53;5003655;28;20022;-60
2021/07/01 09:59:23;;;;;;;1.77;0.50;;;;;;;-142.37;100.00;59669.53;5017918;28;20084;-59
2021/07/01 10:01:48;;;;;;;1.55;0.40;;;;;;;-142.37;100.00;59669.53;5013839;28;20034;-59
2021/07/01 10:04:13;;;;;;;1.15;0.30;;;;;;;-142.37;100.00;59669.53;5015153;28;20037;-59
2021/07/01 10:06:39;;;;;;;1.20;0.38;;;;;;;-142.37;100.00;59669.53;5016179;28;20029;-59
2021/07/01 10:09:09;;;;;;;1.27;0.50;;;;;;;-142.37;100.00;59669.53;5020672;28;20017;-60
2021/07/01 10:11:37;;;;;;;1.85;0.57;;;;;;;-142.37;100.00;59669.53;5022903;28;20025;-61
2021/07/01 10:14:12;;;;;;;1.10;0.52;;;;;;;-142.37;100.00;59669.53;5015748;28;20629;-61
2021/07/01 10:16:38;;;;;;;1.00;0.30;;;;;;;-142.37;100.00;59669.53;5015979;28;20120;-61
2021/07/01 10:19:07;;;;;;;1.48;0.50;;;;;;;-142.37;100.00;59669.53;5015881;28;20118;-60
2021/07/01 10:21:33;;;;;;;0.95;0.52;;;;;;;-142.37;100.00;59669.53;5024846;28;20025;-60
2021/07/01 10:24:07;;;;;;;1.73;0.47;;;;;;;-142.37;100.00;59669.53;5032843;28;20025;-59
2021/07/01 10:26:43;;;;;;;;;;;;;;;-142.37;100.00;59669.53;5003640;28;20031;-60
2021/07/01 10:29:09;;;;;;;0.65;0.40;;;;;;;-142.37;100.00;59669.53;5006221;28;19940;-60
2021/07/01 10:31:58;;;;;;;1.23;0.57;;;;;;;-142.37;100.00;59669.53;5014070;28;20061;-61
2021/07/01 10:34:26;;;;;;;1.98;0.47;;;;;;;-142.37;100.00;59669.53;5015829;28;20030;-60
2021/07/01 10:37:25;;;;;;;1.70;0.55;;;;;;;-142.37;100.00;59669.53;5015428;28;20026;-60
2021/07/01 10:39:52;;;;;;;0.55;0.20;;;;;;;-142.37;100.00;59669.53;4974082;28;20489;-60
2021/07/01 10:42:18;;;;;;;1.20;0.30;;;;;;;-142.37;100.00;59669.53;4973972;28;20222;-60
2021/07/01 10:44:44;;;;;;;0.90;0.30;;;;;;;-142.37;100.00;59669.53;4973284;28;20038;-61
2021/07/01 10:47:30;;;;;;;1.10;0.40;;;;;;;-142.37;100.00;59669.53;4974079;28;20043;-61
2021/07/01 10:49:56;;;;;;;0.68;0.22;;;;;;;-142.37;100.00;59669.53;4985278;28;20031;-61
2021/07/01 10:52:42;;;;;;;0.43;0.40;;;;;;;-142.37;100.00;59669.53;4991238;28;20109;-60
2021/07/01 10:55:08;;;;;;;0.20;0.20;;;;;;;-142.37;100.00;59669.53;4993582;28;20041;-60
2021/07/01 10:57:35;;;;;;;0.63;0.30;;;;;;;-142.37;100.00;59669.53;4993614;28;20078;-60
2021/07/01 11:00:01;;;;;;;0.40;0.30;;;;;;;-142.37;100.00;59669.53;4993499;28;20057;-60
2021/07/01 11:02:46;;;;;;;0.68;0.30;;;;;;;-142.37;100.00;59669.53;4977143;28;20030;-60
2021/07/01 11:05:11;;;;;;;0.88;0.25;;;;;;;-142.37;100.00;59669.53;4977389;28;20572;-60
2021/07/01 11:07:41;;;;;;;0.90;0.22;;;;;;;-142.37;100.00;59669.53;4993824;28;20034;-61
2021/07/01 11:10:07;;;;;;;0.25;0.20;;;;;;;-142.37;100.00;59669.53;4993392;28;20052;-61
2021/07/01 11:12:44;;;;;;;0.40;0.20;;;;;;;-142.37;100.00;59669.53;4982784;28;20525;-60
2021/07/01 11:15:09;;;;;;;0.50;0.30;;;;;;;-142.37;100.00;59669.53;4990227;28;20068;-61
2021/07/01 11:17:37;;;;;;;0.70;0.30;;;;;;;-142.37;100.00;59669.53;5015071;28;20057;-61
2021/07/01 11:20:20;;;;;;;1.42;0.35;;;;;;;-142.37;100.00;59669.53;5013764;28;20026;-62
2021/07/01 11:22:48;;;;;;;1.00;0.40;;;;;;;-142.37;100.00;59669.53;5014985;28;20029;-61
2021/07/01 11:25:42;;;;;;;0.30;0.30;;;;;;;-142.37;100.00;59669.53;5014884;28;20029;-62